sensor_id;sensor_type;location;lat;lon;timestamp;pressure;altitude;pressure_sealevel;temperature;humidity
75219;BME280;63801;49.414;19.474;2024-03-07T00:01:55;94008.03;;;1.03;85.64
75219;BME280;63801;49.414;19.474;2024-03-07T00:03:56;93997.41;;;1.03;85.58
75219;BME280;63801;49.414;19.474;2024-03-07T00:05:56;94013.34;;;1.03;85.80
75219;BME280;63801;49.414;19.474;2024-03-07T00:07:57;94005.69;;;1.01;86.10
75219;BME280;63801;49.414;19.474;2024-03-07T00:09:58;94007.25;;;1.02;85.96
75219;BME280;63801;49.414;19.474;2024-03-07T00:11:59;93998.78;;;1.00;86.15
75219;BME280;63801;49.414;19.474;2024-03-07T00:13:59;94005.38;;;1.03;86.37
75219;BME280;63801;49.414;19.474;2024-03-07T00:15:59;94004.59;;;1.02;86.21
75219;BME280;63801;49.414;19.474;2024-03-07T00:18:02;94001.44;;;1.00;86.34
75219;BME280;63801;49.414;19.474;2024-03-07T00:20:03;93998.78;;;1.00;86.36
75219;BME280;63801;49.414;19.474;2024-03-07T00:22:04;94000.66;;;1.00;86.49
75219;BME280;63801;49.414;19.474;2024-03-07T00:24:05;94006.75;;;1.00;86.42
75219;BME280;63801;49.414;19.474;2024-03-07T00:26:05;93999.84;;;0.99;86.43
75219;BME280;63801;49.414;19.474;2024-03-07T00:28:05;93999.84;;;0.99;86.45
75219;BME280;63801;49.414;19.474;2024-03-07T00:30:07;93985.34;;;0.92;86.75
75219;BME280;63801;49.414;19.474;2024-03-07T00:32:10;93997.72;;;1.01;86.70
75219;BME280;63801;49.414;19.474;2024-03-07T00:34:10;93996.41;;;0.99;86.82
75219;BME280;63801;49.414;19.474;2024-03-07T00:36:11;93990.81;;;1.00;86.71
75219;BME280;63801;49.414;19.474;2024-03-07T00:38:12;93989.75;;;1.01;87.00
75219;BME280;63801;49.414;19.474;2024-03-07T00:40:12;93984.44;;;1.01;86.77
75219;BME280;63801;49.414;19.474;2024-03-07T00:42:13;93993.47;;;1.00;86.78
75219;BME280;63801;49.414;19.474;2024-03-07T00:44:13;93998.00;;;1.00;86.81
75219;BME280;63801;49.414;19.474;2024-03-07T00:46:13;93991.66;;;0.96;87.00
75219;BME280;63801;49.414;19.474;2024-03-07T00:48:14;94006.00;;;0.95;87.15
75219;BME280;63801;49.414;19.474;2024-03-07T00:50:14;93980.38;;;0.85;87.06
75219;BME280;63801;49.414;19.474;2024-03-07T00:52:15;93992.47;;;0.96;87.29
75219;BME280;63801;49.414;19.474;2024-03-07T00:54:15;93987.66;;;0.98;87.09
75219;BME280;63801;49.414;19.474;2024-03-07T00:56:16;93982.66;;;0.97;86.89
75219;BME280;63801;49.414;19.474;2024-03-07T00:58:17;93983.97;;;0.94;87.12
75219;BME280;63801;49.414;19.474;2024-03-07T01:00:17;93991.16;;;0.94;87.21
75219;BME280;63801;49.414;19.474;2024-03-07T01:02:21;93988.22;;;0.95;87.21
75219;BME280;63801;49.414;19.474;2024-03-07T01:04:21;93985.56;;;0.95;87.16
75219;BME280;63801;49.414;19.474;2024-03-07T01:06:22;93980.84;;;0.92;87.23
75219;BME280;63801;49.414;19.474;2024-03-07T01:08:23;93990.34;;;0.93;87.51
75219;BME280;63801;49.414;19.474;2024-03-07T01:10:23;93982.41;;;0.93;87.52
75219;BME280;63801;49.414;19.474;2024-03-07T01:12:24;93983.97;;;0.94;87.67
75219;BME280;63801;49.414;19.474;2024-03-07T01:14:30;93976.81;;;0.95;87.56
75219;BME280;63801;49.414;19.474;2024-03-07T01:16:31;93973.38;;;0.94;87.28
75219;BME280;63801;49.414;19.474;2024-03-07T01:18:31;93986.38;;;0.96;87.68
75219;BME280;63801;49.414;19.474;2024-03-07T01:20:33;93981.31;;;0.94;87.77
75219;BME280;63801;49.414;19.474;2024-03-07T01:22:33;93977.09;;;0.93;87.43
75219;BME280;63801;49.414;19.474;2024-03-07T01:24:34;93981.31;;;0.94;87.72
75219;BME280;63801;49.414;19.474;2024-03-07T01:26:35;93977.03;;;0.98;87.51
75219;BME280;63801;49.414;19.474;2024-03-07T01:28:35;93975.97;;;0.99;87.62
75219;BME280;63801;49.414;19.474;2024-03-07T01:30:36;93976.75;;;1.00;87.58
75219;BME280;63801;49.414;19.474;2024-03-07T01:32:36;93985.50;;;1.00;87.49
75219;BME280;63801;49.414;19.474;2024-03-07T01:34:37;93976.53;;;0.96;87.56
75219;BME280;63801;49.414;19.474;2024-03-07T01:36:37;93983.72;;;0.96;87.59
75219;BME280;63801;49.414;19.474;2024-03-07T01:38:37;93982.91;;;0.95;87.41
75219;BME280;63801;49.414;19.474;2024-03-07T01:40:39;93987.16;;;0.96;87.39
75219;BME280;63801;49.414;19.474;2024-03-07T01:42:40;93982.91;;;0.95;87.34
75219;BME280;63801;49.414;19.474;2024-03-07T01:44:41;93972.31;;;0.95;87.46
75219;BME280;63801;49.414;19.474;2024-03-07T01:46:44;93972.09;;;0.92;87.73
75219;BME280;63801;49.414;19.474;2024-03-07T01:48:44;93977.88;;;0.94;87.57
75219;BME280;63801;49.414;19.474;2024-03-07T01:50:45;93977.09;;;0.93;87.68
75219;BME280;63801;49.414;19.474;2024-03-07T01:52:45;93971.78;;;0.93;87.56
75219;BME280;63801;49.414;19.474;2024-03-07T01:54:46;93967.84;;;0.90;87.50
75219;BME280;63801;49.414;19.474;2024-03-07T01:56:47;93979.25;;;0.91;87.56
75219;BME280;63801;49.414;19.474;2024-03-07T01:58:49;93976.03;;;0.94;87.59
75219;BME280;63801;49.414;19.474;2024-03-07T02:00:50;93970.44;;;0.96;87.58
75219;BME280;63801;49.414;19.474;2024-03-07T02:02:52;93969.06;;;0.98;87.57
75219;BME280;63801;49.414;19.474;2024-03-07T02:04:53;93971.44;;;1.00;87.59
75219;BME280;63801;49.414;19.474;2024-03-07T02:06:53;93964.00;;;1.02;87.47
75219;BME280;63801;49.414;19.474;2024-03-07T02:08:55;93970.09;;;1.02;87.54
75219;BME280;63801;49.414;19.474;2024-03-07T02:10:56;93968.53;;;1.01;87.51
75219;BME280;63801;49.414;19.474;2024-03-07T02:12:56;93966.66;;;1.02;87.39
75219;BME280;63801;49.414;19.474;2024-03-07T02:14:57;93968.22;;;1.03;87.29
75219;BME280;63801;49.414;19.474;2024-03-07T02:16:57;93968.81;;;1.00;87.30
75219;BME280;63801;49.414;19.474;2024-03-07T02:18:59;93968.00;;;0.99;87.37
75219;BME280;63801;49.414;19.474;2024-03-07T02:21:00;93967.50;;;0.97;87.40
75219;BME280;63801;49.414;19.474;2024-03-07T02:23:00;93966.41;;;0.98;87.29
75219;BME280;63801;49.414;19.474;2024-03-07T02:25:00;93968.56;;;0.96;87.25
75219;BME280;63801;49.414;19.474;2024-03-07T02:27:01;93966.72;;;0.97;87.08
75219;BME280;63801;49.414;19.474;2024-03-07T02:29:01;93964.56;;;0.99;87.30
75219;BME280;63801;49.414;19.474;2024-03-07T02:31:03;93961.91;;;0.99;87.18
75219;BME280;63801;49.414;19.474;2024-03-07T02:33:03;93969.88;;;0.99;87.35
75219;BME280;63801;49.414;19.474;2024-03-07T02:35:07;93962.97;;;0.98;87.08
75219;BME280;63801;49.414;19.474;2024-03-07T02:37:09;93962.97;;;0.98;87.31
75219;BME280;63801;49.414;19.474;2024-03-07T02:39:09;93954.25;;;0.97;87.22
75219;BME280;63801;49.414;19.474;2024-03-07T02:41:10;93955.31;;;0.96;87.39
75219;BME280;63801;49.414;19.474;2024-03-07T02:43:10;93951.59;;;0.97;87.48
75219;BME280;63801;49.414;19.474;2024-03-07T02:45:11;93955.31;;;0.96;87.39
75219;BME280;63801;49.414;19.474;2024-03-07T02:47:14;93948.16;;;0.97;87.45
75219;BME280;63801;49.414;19.474;2024-03-07T02:49:15;93965.63;;;0.98;87.37
75219;BME280;63801;49.414;19.474;2024-03-07T02:51:15;93948.94;;;0.97;87.31
75219;BME280;63801;49.414;19.474;2024-03-07T02:53:15;93949.44;;;0.99;87.16
75219;BME280;63801;49.414;19.474;2024-03-07T02:55:16;93952.34;;;0.98;87.31
75219;BME280;63801;49.414;19.474;2024-03-07T02:57:16;93957.38;;;0.99;86.96
75219;BME280;63801;49.414;19.474;2024-03-07T02:59:16;93948.63;;;0.99;87.15
75219;BME280;63801;49.414;19.474;2024-03-07T03:01:17;93948.94;;;0.97;86.99
75219;BME280;63801;49.414;19.474;2024-03-07T03:03:17;93954.78;;;0.94;86.97
75219;BME280;63801;49.414;19.474;2024-03-07T03:05:18;93951.13;;;0.90;86.89
75219;BME280;63801;49.414;19.474;2024-03-07T03:07:18;93951.19;;;0.85;87.11
75219;BME280;63801;49.414;19.474;2024-03-07T03:09:19;93959.13;;;0.85;87.17
75219;BME280;63801;49.414;19.474;2024-03-07T03:11:19;93956.00;;;0.83;87.26
75219;BME280;63801;49.414;19.474;2024-03-07T03:13:20;93945.38;;;0.83;87.07
75219;BME280;63801;49.414;19.474;2024-03-07T03:15:21;93952.53;;;0.82;86.97
75219;BME280;63801;49.414;19.474;2024-03-07T03:17:21;93953.13;;;0.79;86.92
75219;BME280;63801;49.414;19.474;2024-03-07T03:19:21;93941.75;;;0.74;87.10
75219;BME280;63801;49.414;19.474;2024-03-07T03:21:23;93955.53;;;0.76;87.01
75219;BME280;63801;49.414;19.474;2024-03-07T03:23:23;93959.28;;;0.75;87.10
75219;BME280;63801;49.414;19.474;2024-03-07T03:25:24;93957.69;;;0.74;87.24
75219;BME280;63801;49.414;19.474;2024-03-07T03:27:24;93953.72;;;0.71;87.35
75219;BME280;63801;49.414;19.474;2024-03-07T03:29:24;93956.66;;;0.70;87.54
75219;BME280;63801;49.414;19.474;2024-03-07T03:31:25;93952.16;;;0.70;87.28
75219;BME280;63801;49.414;19.474;2024-03-07T03:33:25;93950.28;;;0.71;87.20
75219;BME280;63801;49.414;19.474;2024-03-07T03:35:26;93954.28;;;0.68;87.35
75219;BME280;63801;49.414;19.474;2024-03-07T03:37:26;93958.78;;;0.68;87.40
75219;BME280;63801;49.414;19.474;2024-03-07T03:39:26;93957.72;;;0.69;87.21
75219;BME280;63801;49.414;19.474;2024-03-07T03:41:27;93966.53;;;0.64;87.59
75219;BME280;63801;49.414;19.474;2024-03-07T03:43:27;93951.41;;;0.65;87.45
75219;BME280;63801;49.414;19.474;2024-03-07T03:45:28;93956.50;;;0.61;87.45
75219;BME280;63801;49.414;19.474;2024-03-07T03:47:28;93956.19;;;0.63;87.64
75219;BME280;63801;49.414;19.474;2024-03-07T03:49:28;93957.78;;;0.64;87.61
75219;BME280;63801;49.414;19.474;2024-03-07T03:51:29;93949.81;;;0.64;87.57
75219;BME280;63801;49.414;19.474;2024-03-07T03:53:30;93954.06;;;0.65;87.50
75219;BME280;63801;49.414;19.474;2024-03-07T03:55:30;93959.38;;;0.65;87.53
75219;BME280;63801;49.414;19.474;2024-03-07T03:57:33;93956.19;;;0.63;87.41
75219;BME280;63801;49.414;19.474;2024-03-07T03:59:33;93955.91;;;0.64;87.41
75219;BME280;63801;49.414;19.474;2024-03-07T04:01:33;93947.97;;;0.64;87.58
75219;BME280;63801;49.414;19.474;2024-03-07T04:03:34;93951.97;;;0.62;87.65
75219;BME280;63801;49.414;19.474;2024-03-07T04:05:34;93948.53;;;0.61;87.76
75219;BME280;63801;49.414;19.474;2024-03-07T04:07:35;93948.53;;;0.61;87.56
75219;BME280;63801;49.414;19.474;2024-03-07T04:09:36;93950.09;;;0.62;87.40
75219;BME280;63801;49.414;19.474;2024-03-07T04:11:36;93956.50;;;0.61;87.21
75219;BME280;63801;49.414;19.474;2024-03-07T04:13:37;93949.88;;;0.59;87.37
75219;BME280;63801;49.414;19.474;2024-03-07T04:15:38;93951.25;;;0.56;87.52
75219;BME280;63801;49.414;19.474;2024-03-07T04:17:38;93955.47;;;0.57;87.55
75219;BME280;63801;49.414;19.474;2024-03-07T04:19:42;93955.75;;;0.56;87.54
75219;BME280;63801;49.414;19.474;2024-03-07T04:21:42;93956.53;;;0.56;87.57
75219;BME280;63801;49.414;19.474;2024-03-07T04:23:42;93949.44;;;0.52;87.55
75219;BME280;63801;49.414;19.474;2024-03-07T04:25:46;93964.19;;;0.58;87.70
75219;BME280;63801;49.414;19.474;2024-03-07T04:27:46;93956.25;;;0.58;87.66
75219;BME280;63801;49.414;19.474;2024-03-07T04:29:46;93955.97;;;0.59;87.74
75219;BME280;63801;49.414;19.474;2024-03-07T04:31:49;93958.88;;;0.58;87.70
75219;BME280;63801;49.414;19.474;2024-03-07T04:33:50;93955.19;;;0.59;87.90
75219;BME280;63801;49.414;19.474;2024-03-07T04:35:51;93955.97;;;0.59;87.91
75219;BME280;63801;49.414;19.474;2024-03-07T04:37:52;93961.84;;;0.56;87.80
75219;BME280;63801;49.414;19.474;2024-03-07T04:39:53;93959.16;;;0.61;87.94
75219;BME280;63801;49.414;19.474;2024-03-07T04:41:54;93953.53;;;0.63;87.74
75219;BME280;63801;49.414;19.474;2024-03-07T04:43:54;93954.63;;;0.62;87.58
75219;BME280;63801;49.414;19.474;2024-03-07T04:45:55;93961.00;;;0.61;87.80
75219;BME280;63801;49.414;19.474;2024-03-07T04:47:55;93950.66;;;0.59;87.67
75219;BME280;63801;49.414;19.474;2024-03-07T04:49:55;93970.28;;;0.58;87.74
75219;BME280;63801;49.414;19.474;2024-03-07T04:51:58;93961.53;;;0.58;87.91
75219;BME280;63801;49.414;19.474;2024-03-07T04:53:58;93967.09;;;0.61;87.87
75219;BME280;63801;49.414;19.474;2024-03-07T04:55:59;93973.97;;;0.62;87.91
75219;BME280;63801;49.414;19.474;2024-03-07T04:57:59;93967.38;;;0.60;87.97
75219;BME280;63801;49.414;19.474;2024-03-07T04:59:59;93978.50;;;0.62;88.07
75219;BME280;63801;49.414;19.474;2024-03-07T05:02:00;93971.31;;;0.62;87.98
75219;BME280;63801;49.414;19.474;2024-03-07T05:04:00;93973.97;;;0.62;87.98
75219;BME280;63801;49.414;19.474;2024-03-07T05:06:01;93980.84;;;0.63;87.76
75219;BME280;63801;49.414;19.474;2024-03-07T05:08:01;93975.28;;;0.65;87.65
75219;BME280;63801;49.414;19.474;2024-03-07T05:10:03;93979.53;;;0.66;87.68
75219;BME280;63801;49.414;19.474;2024-03-07T05:12:04;93976.88;;;0.66;87.67
75219;BME280;63801;49.414;19.474;2024-03-07T05:14:04;93978.50;;;0.62;87.55
75219;BME280;63801;49.414;19.474;2024-03-07T05:16:05;93967.38;;;0.60;87.68
75219;BME280;63801;49.414;19.474;2024-03-07T05:18:05;93970.56;;;0.62;87.63
75219;BME280;63801;49.414;19.474;2024-03-07T05:20:08;93981.16;;;0.62;87.62
75219;BME280;63801;49.414;19.474;2024-03-07T05:22:17;93970.59;;;0.57;87.73
75219;BME280;63801;49.414;19.474;2024-03-07T05:24:20;93973.78;;;0.54;87.68
75219;BME280;63801;49.414;19.474;2024-03-07T05:26:21;93972.22;;;0.53;87.72
75219;BME280;63801;49.414;19.474;2024-03-07T05:28:21;93968.47;;;0.54;87.89
75219;BME280;63801;49.414;19.474;2024-03-07T05:30:22;93976.97;;;0.56;87.32
75219;BME280;63801;49.414;19.474;2024-03-07T05:32:26;93973.78;;;0.54;87.80
75219;BME280;63801;49.414;19.474;2024-03-07T05:34:26;93973.78;;;0.54;87.47
75219;BME280;63801;49.414;19.474;2024-03-07T05:36:28;93976.75;;;0.52;87.45
75219;BME280;63801;49.414;19.474;2024-03-07T05:38:28;93979.66;;;0.51;87.42
75219;BME280;63801;49.414;19.474;2024-03-07T05:40:28;93980.44;;;0.51;87.56
75219;BME280;63801;49.414;19.474;2024-03-07T05:42:29;93977.81;;;0.51;87.32
75219;BME280;63801;49.414;19.474;2024-03-07T05:44:29;93970.41;;;0.48;87.51
75219;BME280;63801;49.414;19.474;2024-03-07T05:46:30;93970.16;;;0.44;87.53
75219;BME280;63801;49.414;19.474;2024-03-07T05:48:30;93972.53;;;0.46;87.49
75219;BME280;63801;49.414;19.474;2024-03-07T05:50:30;93979.69;;;0.45;87.54
75219;BME280;63801;49.414;19.474;2024-03-07T05:52:31;93985.81;;;0.46;87.50
75219;BME280;63801;49.414;19.474;2024-03-07T05:54:32;93982.34;;;0.45;87.89
75219;BME280;63801;49.414;19.474;2024-03-07T05:56:33;93987.66;;;0.45;87.50
75219;BME280;63801;49.414;19.474;2024-03-07T05:58:36;93987.16;;;0.43;87.65
75219;BME280;63801;49.414;19.474;2024-03-07T06:00:36;93990.31;;;0.45;87.52
75219;BME280;63801;49.414;19.474;2024-03-07T06:02:39;93975.25;;;0.41;87.45
75219;BME280;63801;49.414;19.474;2024-03-07T06:04:39;93981.09;;;0.38;87.43
75219;BME280;63801;49.414;19.474;2024-03-07T06:06:39;93988.72;;;0.44;87.62
75219;BME280;63801;49.414;19.474;2024-03-07T06:08:41;93990.59;;;0.44;87.46
75219;BME280;63801;49.414;19.474;2024-03-07T06:10:47;93981.84;;;0.43;87.72
75219;BME280;63801;49.414;19.474;2024-03-07T06:12:47;93999.31;;;0.44;87.70
75219;BME280;63801;49.414;19.474;2024-03-07T06:14:48;93980.50;;;0.46;87.90
75219;BME280;63801;49.414;19.474;2024-03-07T06:16:49;93990.31;;;0.45;87.48
75219;BME280;63801;49.414;19.474;2024-03-07T06:18:49;93990.59;;;0.44;87.32
75219;BME280;63801;49.414;19.474;2024-03-07T06:20:50;93998.03;;;0.42;87.57
75219;BME280;63801;49.414;19.474;2024-03-07T06:22:51;93998.84;;;0.42;87.53
75219;BME280;63801;49.414;19.474;2024-03-07T06:24:52;93998.03;;;0.42;87.50
75219;BME280;63801;49.414;19.474;2024-03-07T06:26:52;94004.13;;;0.42;87.61
75219;BME280;63801;49.414;19.474;2024-03-07T06:29:04;94010.50;;;0.41;87.62
75219;BME280;63801;49.414;19.474;2024-03-07T06:31:07;94005.72;;;0.43;87.73
75219;BME280;63801;49.414;19.474;2024-03-07T06:33:09;94003.56;;;0.45;87.69
75219;BME280;63801;49.414;19.474;2024-03-07T06:35:10;93989.34;;;0.36;87.65
75219;BME280;63801;49.414;19.474;2024-03-07T06:37:10;93999.31;;;0.44;87.43
75219;BME280;63801;49.414;19.474;2024-03-07T06:39:12;93995.44;;;0.37;87.49
75219;BME280;63801;49.414;19.474;2024-03-07T06:41:13;94009.44;;;0.42;87.21
75219;BME280;63801;49.414;19.474;2024-03-07T06:43:14;94007.28;;;0.44;87.72
75219;BME280;63801;49.414;19.474;2024-03-07T06:45:14;94004.69;;;0.39;87.68
75219;BME280;63801;49.414;19.474;2024-03-07T06:47:16;94010.50;;;0.41;87.69
75219;BME280;63801;49.414;19.474;2024-03-07T06:49:16;94014.22;;;0.40;87.95
75219;BME280;63801;49.414;19.474;2024-03-07T06:51:17;94006.56;;;0.39;88.08
75219;BME280;63801;49.414;19.474;2024-03-07T06:53:17;94023.19;;;0.44;88.19
75219;BME280;63801;49.414;19.474;2024-03-07T06:55:18;94011.25;;;0.47;88.16
75219;BME280;63801;49.414;19.474;2024-03-07T06:57:19;94007.81;;;0.47;88.04
75219;BME280;63801;49.414;19.474;2024-03-07T06:59:19;94016.78;;;0.51;88.18
75219;BME280;63801;49.414;19.474;2024-03-07T07:01:19;94014.09;;;0.56;87.85
75219;BME280;63801;49.414;19.474;2024-03-07T07:03:21;94016.22;;;0.54;87.59
75219;BME280;63801;49.414;19.474;2024-03-07T07:05:22;94016.53;;;0.52;87.85
75219;BME280;63801;49.414;19.474;2024-03-07T07:07:23;94018.38;;;0.52;87.83
75219;BME280;63801;49.414;19.474;2024-03-07T07:09:23;94022.09;;;0.51;88.13
75219;BME280;63801;49.414;19.474;2024-03-07T07:11:24;94022.88;;;0.51;88.16
75219;BME280;63801;49.414;19.474;2024-03-07T07:13:25;94023.91;;;0.55;88.02
75219;BME280;63801;49.414;19.474;2024-03-07T07:15:25;94027.09;;;0.57;87.99
75219;BME280;63801;49.414;19.474;2024-03-07T07:17:26;94023.59;;;0.62;88.02
75219;BME280;63801;49.414;19.474;2024-03-07T07:19:29;94022.00;;;0.61;88.09
75219;BME280;63801;49.414;19.474;2024-03-07T07:21:29;94025.16;;;0.63;87.57
75219;BME280;63801;49.414;19.474;2024-03-07T07:23:29;94015.69;;;0.57;87.51
75219;BME280;63801;49.414;19.474;2024-03-07T07:25:30;94019.66;;;0.54;87.73
75219;BME280;63801;49.414;19.474;2024-03-07T07:27:33;94019.16;;;0.52;87.88
75219;BME280;63801;49.414;19.474;2024-03-07T07:29:34;94026.28;;;0.57;87.94
75219;BME280;63801;49.414;19.474;2024-03-07T07:31:34;94019.41;;;0.56;87.77
75219;BME280;63801;49.414;19.474;2024-03-07T07:33:35;94030.00;;;0.56;87.76
75219;BME280;63801;49.414;19.474;2024-03-07T07:35:36;94017.25;;;0.58;87.80
75219;BME280;63801;49.414;19.474;2024-03-07T07:37:47;94021.78;;;0.57;87.76
75219;BME280;63801;49.414;19.474;2024-03-07T07:39:51;94017.25;;;0.58;87.64
75219;BME280;63801;49.414;19.474;2024-03-07T07:41:52;94015.16;;;0.55;87.55
75219;BME280;63801;49.414;19.474;2024-03-07T07:43:52;94017.31;;;0.53;87.56
75219;BME280;63801;49.414;19.474;2024-03-07T07:45:53;94017.06;;;0.49;87.53
75219;BME280;63801;49.414;19.474;2024-03-07T07:47:53;94029.03;;;0.47;87.71
75219;BME280;63801;49.414;19.474;2024-03-07T07:49:53;94021.88;;;0.47;87.49
75219;BME280;63801;49.414;19.474;2024-03-07T07:51:54;94018.69;;;0.45;87.49
75219;BME280;63801;49.414;19.474;2024-03-07T07:53:54;94024.56;;;0.42;87.92
75219;BME280;63801;49.414;19.474;2024-03-07T07:55:56;94026.69;;;0.40;88.04
75219;BME280;63801;49.414;19.474;2024-03-07T07:57:59;94021.38;;;0.40;88.13
75219;BME280;63801;49.414;19.474;2024-03-07T07:59:59;94023.75;;;0.41;88.15
75219;BME280;63801;49.414;19.474;2024-03-07T08:01:59;94024.56;;;0.42;88.07
75219;BME280;63801;49.414;19.474;2024-03-07T08:04:00;94027.44;;;0.45;88.26
75219;BME280;63801;49.414;19.474;2024-03-07T08:06:00;94024.00;;;0.45;87.88
75219;BME280;63801;49.414;19.474;2024-03-07T08:08:03;94030.09;;;0.45;88.03
75219;BME280;63801;49.414;19.474;2024-03-07T08:10:05;94023.72;;;0.47;87.83
75219;BME280;63801;49.414;19.474;2024-03-07T08:12:05;94032.25;;;0.43;87.25
75219;BME280;63801;49.414;19.474;2024-03-07T08:14:06;94037.28;;;0.40;87.31
75219;BME280;63801;49.414;19.474;2024-03-07T08:16:06;94039.22;;;0.34;87.32
75219;BME280;63801;49.414;19.474;2024-03-07T08:18:07;94033.94;;;0.29;87.95
75219;BME280;63801;49.414;19.474;2024-03-07T08:20:13;94027.84;;;0.29;88.11
75219;BME280;63801;49.414;19.474;2024-03-07T08:22:14;94026.22;;;0.33;87.76
75219;BME280;63801;49.414;19.474;2024-03-07T08:24:15;94026.00;;;0.29;87.61
75219;BME280;63801;49.414;19.474;2024-03-07T08:26:15;94039.50;;;0.28;87.98
75219;BME280;63801;49.414;19.474;2024-03-07T08:28:18;94041.09;;;0.29;88.01
75219;BME280;63801;49.414;19.474;2024-03-07T08:30:19;94032.88;;;0.30;88.13
75219;BME280;63801;49.414;19.474;2024-03-07T08:32:19;94037.09;;;0.31;88.55
75219;BME280;63801;49.414;19.474;2024-03-07T08:34:20;94042.13;;;0.33;88.03
75219;BME280;63801;49.414;19.474;2024-03-07T08:36:20;94036.81;;;0.33;88.08
75219;BME280;63801;49.414;19.474;2024-03-07T08:38:22;94042.13;;;0.33;88.09
75219;BME280;63801;49.414;19.474;2024-03-07T08:40:24;94044.28;;;0.31;88.38
75219;BME280;63801;49.414;19.474;2024-03-07T08:42:24;94045.56;;;0.33;88.47
75219;BME280;63801;49.414;19.474;2024-03-07T08:44:25;94047.13;;;0.39;88.43
75219;BME280;63801;49.414;19.474;2024-03-07T08:46:25;94036.44;;;0.44;88.32
75219;BME280;63801;49.414;19.474;2024-03-07T08:48:27;94038.28;;;0.49;88.47
75219;BME280;63801;49.414;19.474;2024-03-07T08:50:28;94035.88;;;0.53;88.08
75219;BME280;63801;49.414;19.474;2024-03-07T08:52:28;94041.44;;;0.51;88.17
75219;BME280;63801;49.414;19.474;2024-03-07T08:54:28;94058.41;;;0.50;87.89
75219;BME280;63801;49.414;19.474;2024-03-07T08:56:29;94038.56;;;0.48;87.95
75219;BME280;63801;49.414;19.474;2024-03-07T08:58:29;94047.03;;;0.50;87.75
75219;BME280;63801;49.414;19.474;2024-03-07T09:00:29;94048.66;;;0.45;87.89
75219;BME280;63801;49.414;19.474;2024-03-07T09:02:30;94055.00;;;0.44;87.16
75219;BME280;63801;49.414;19.474;2024-03-07T09:04:30;94054.50;;;0.42;87.63
75219;BME280;63801;49.414;19.474;2024-03-07T09:06:30;94054.00;;;0.40;87.62
75219;BME280;63801;49.414;19.474;2024-03-07T09:08:32;94059.84;;;0.37;87.62
75219;BME280;63801;49.414;19.474;2024-03-07T09:10:32;94050.91;;;0.28;88.04
75219;BME280;63801;49.414;19.474;2024-03-07T09:12:33;94062.00;;;0.35;87.75
75219;BME280;63801;49.414;19.474;2024-03-07T09:14:34;94065.16;;;0.37;88.22
75219;BME280;63801;49.414;19.474;2024-03-07T09:16:35;94062.25;;;0.39;87.83
75219;BME280;63801;49.414;19.474;2024-03-07T09:18:36;94064.66;;;0.35;88.32
75219;BME280;63801;49.414;19.474;2024-03-07T09:20:36;94066.22;;;0.36;88.37
75219;BME280;63801;49.414;19.474;2024-03-07T09:22:37;94070.69;;;0.41;88.29
75219;BME280;63801;49.414;19.474;2024-03-07T09:24:38;94066.75;;;0.38;88.06
75219;BME280;63801;49.414;19.474;2024-03-07T09:26:38;94065.69;;;0.39;88.26
75219;BME280;63801;49.414;19.474;2024-03-07T09:28:39;94069.63;;;0.42;88.42
75219;BME280;63801;49.414;19.474;2024-03-07T09:30:40;94067.78;;;0.42;88.07
75219;BME280;63801;49.414;19.474;2024-03-07T09:32:41;94064.09;;;0.38;88.23
75219;BME280;63801;49.414;19.474;2024-03-07T09:34:41;94064.06;;;0.43;87.96
75219;BME280;63801;49.414;19.474;2024-03-07T09:36:42;94069.91;;;0.40;87.88
75219;BME280;63801;49.414;19.474;2024-03-07T09:38:42;94073.91;;;0.38;88.11
75219;BME280;63801;49.414;19.474;2024-03-07T09:40:42;94074.16;;;0.36;88.13
75219;BME280;63801;49.414;19.474;2024-03-07T09:42:48;94077.38;;;0.33;87.98
75219;BME280;63801;49.414;19.474;2024-03-07T09:44:51;94075.53;;;0.34;87.93
75219;BME280;63801;49.414;19.474;2024-03-07T09:46:55;94082.16;;;0.31;87.78
75219;BME280;63801;49.414;19.474;2024-03-07T09:48:55;94085.63;;;0.27;87.75
75219;BME280;63801;49.414;19.474;2024-03-07T09:50:58;94084.88;;;0.26;87.85
75219;BME280;63801;49.414;19.474;2024-03-07T09:53:00;94089.66;;;0.24;87.95
75219;BME280;63801;49.414;19.474;2024-03-07T09:55:03;94092.56;;;0.23;88.36
75219;BME280;63801;49.414;19.474;2024-03-07T09:57:05;94088.06;;;0.23;88.06
75219;BME280;63801;49.414;19.474;2024-03-07T09:59:11;94091.50;;;0.24;88.33
75219;BME280;63801;49.414;19.474;2024-03-07T10:01:15;94077.75;;;0.22;88.41
75219;BME280;63801;49.414;19.474;2024-03-07T10:03:17;94081.66;;;0.29;88.54
75219;BME280;63801;49.414;19.474;2024-03-07T10:05:22;94086.44;;;0.27;88.19
75219;BME280;63801;49.414;19.474;2024-03-07T10:07:22;94088.81;;;0.29;88.17
75219;BME280;63801;49.414;19.474;2024-03-07T10:09:23;94095.97;;;0.28;88.17
75219;BME280;63801;49.414;19.474;2024-03-07T10:11:25;94087.75;;;0.30;88.38
75219;BME280;63801;49.414;19.474;2024-03-07T10:13:26;94087.47;;;0.31;88.14
75219;BME280;63801;49.414;19.474;2024-03-07T10:15:28;94084.03;;;0.31;88.58
75219;BME280;63801;49.414;19.474;2024-03-07T10:17:28;94089.06;;;0.32;88.24
75219;BME280;63801;49.414;19.474;2024-03-07T10:19:29;94088.53;;;0.35;88.11
75219;BME280;63801;49.414;19.474;2024-03-07T10:21:30;94077.91;;;0.35;88.09
75219;BME280;63801;49.414;19.474;2024-03-07T10:23:31;94084.28;;;0.34;87.86
75219;BME280;63801;49.414;19.474;2024-03-07T10:25:33;94077.41;;;0.28;88.06
75219;BME280;63801;49.414;19.474;2024-03-07T10:27:38;94079.56;;;0.26;88.19
75219;BME280;63801;49.414;19.474;2024-03-07T10:29:39;94081.13;;;0.27;88.29
75219;BME280;63801;49.414;19.474;2024-03-07T10:31:39;94078.22;;;0.29;88.17
75219;BME280;63801;49.414;19.474;2024-03-07T10:33:41;94081.13;;;0.27;88.28
75219;BME280;63801;49.414;19.474;2024-03-07T10:35:41;94086.44;;;0.27;88.26
75219;BME280;63801;49.414;19.474;2024-03-07T10:37:42;94089.09;;;0.27;88.13
75219;BME280;63801;49.414;19.474;2024-03-07T10:39:46;94093.88;;;0.25;88.27
75219;BME280;63801;49.414;19.474;2024-03-07T10:41:47;94096.25;;;0.27;88.22